createdAt,value
2019-01-23T00:01:29.854Z,28.87
2019-01-23T00:04:35.560Z,25.30
2019-01-23T00:07:41.259Z,26.20
2019-01-23T00:10:46.987Z,26.67
2019-01-23T00:13:52.907Z,24.57
2019-01-23T00:16:58.829Z,26.73
2019-01-23T00:20:05.034Z,25.77
2019-01-23T00:23:10.722Z,26.40
2019-01-23T00:26:16.427Z,26.23
2019-01-23T00:29:22.230Z,26.37
2019-01-23T00:32:28.299Z,27.10
2019-01-23T00:35:34.011Z,26.27
2019-01-23T00:38:39.730Z,27.97
2019-01-23T00:41:45.554Z,26.17
2019-01-23T00:44:51.266Z,27.87
2019-01-23T00:47:56.971Z,26.87
2019-01-23T00:51:02.678Z,26.80
2019-01-23T00:54:08.603Z,27.50
2019-01-23T00:57:14.301Z,27.17
2019-01-23T01:00:22.677Z,27.10
2019-01-23T01:03:28.377Z,28.23
2019-01-23T01:06:34.235Z,27.33
2019-01-23T01:09:39.950Z,27.23
2019-01-23T01:12:45.766Z,27.10
2019-01-23T01:15:52.585Z,26.60
2019-01-23T01:18:58.413Z,26.70
2019-01-23T01:22:04.444Z,27.37
2019-01-23T01:25:12.511Z,27.17
2019-01-23T01:28:18.316Z,28.13
2019-01-23T01:31:24.127Z,29.93
2019-01-23T01:34:29.934Z,29.97
2019-01-23T01:37:35.664Z,29.50
2019-01-23T01:40:41.484Z,28.17
2019-01-23T01:43:47.214Z,28.97
2019-01-23T01:46:53.008Z,29.30
2019-01-23T01:49:58.893Z,30.30
2019-01-23T01:53:04.729Z,31.27
2019-01-23T01:56:10.506Z,29.57
2019-01-23T01:59:16.252Z,32.40
2019-01-23T02:02:22.085Z,31.10
2019-01-23T02:05:27.930Z,30.30
2019-01-23T02:08:33.631Z,32.70
2019-01-23T02:11:39.337Z,32.47
2019-01-23T02:14:45.062Z,30.83
2019-01-23T02:17:51.083Z,30.60
2019-01-23T02:20:57.237Z,30.90
2019-01-23T02:24:02.921Z,30.33
2019-01-23T02:27:08.649Z,31.40
2019-01-23T02:30:15.858Z,30.33
2019-01-23T02:33:21.681Z,30.33
2019-01-23T02:36:27.432Z,33.30
2019-01-23T02:39:33.136Z,31.23
2019-01-23T02:42:38.867Z,31.97
2019-01-23T02:45:44.568Z,32.20
2019-01-23T02:48:51.385Z,33.37
2019-01-23T02:51:57.081Z,35.33
2019-01-23T02:55:02.893Z,36.17
2019-01-23T02:58:08.700Z,35.73
2019-01-23T03:01:14.401Z,35.17
2019-01-23T03:04:20.108Z,35.23
2019-01-23T03:07:27.273Z,33.73
2019-01-23T03:10:33.124Z,34.23
2019-01-23T03:13:38.812Z,34.90
2019-01-23T03:16:44.629Z,33.57
2019-01-23T03:19:50.385Z,32.57
2019-01-23T03:22:56.089Z,29.17
2019-01-23T03:26:01.796Z,31.43
2019-01-23T03:29:07.584Z,30.47
2019-01-23T03:32:13.399Z,30.03
2019-01-23T03:35:19.491Z,30.77
2019-01-23T03:38:25.236Z,28.87
2019-01-23T03:41:30.973Z,26.23
2019-01-23T03:44:36.686Z,26.67
2019-01-23T03:47:42.724Z,25.70
2019-01-23T03:50:48.558Z,28.17
2019-01-23T03:53:54.296Z,30.50
2019-01-23T03:57:00.115Z,28.63
2019-01-23T04:00:07.805Z,28.03
2019-01-23T04:03:13.612Z,29.23
2019-01-23T04:06:19.345Z,27.83
2019-01-23T04:09:26.042Z,28.53
2019-01-23T04:12:31.766Z,28.57
2019-01-23T04:15:37.653Z,27.23
2019-01-23T04:18:43.487Z,28.13
2019-01-23T04:21:49.187Z,28.50
2019-01-23T04:24:54.894Z,28.57
2019-01-23T04:28:00.609Z,27.77
2019-01-23T04:31:06.448Z,28.87
2019-01-23T04:34:12.162Z,28.33
2019-01-23T04:37:17.900Z,31.50
2019-01-23T04:40:23.578Z,29.87
2019-01-23T04:43:29.287Z,30.30
2019-01-23T04:46:34.979Z,31.00
2019-01-23T04:49:40.702Z,31.57
2019-01-23T04:53:07.299Z,34.03
2019-01-23T04:56:14.088Z,32.90
2019-01-23T04:59:19.814Z,33.83
2019-01-23T05:02:25.542Z,33.60
2019-01-23T05:05:31.347Z,33.40
2019-01-23T05:08:37.070Z,35.70
2019-01-23T05:11:42.798Z,33.63
2019-01-23T05:14:48.534Z,33.70
2019-01-23T05:17:54.234Z,35.33
2019-01-23T05:20:59.939Z,35.30
2019-01-23T05:24:05.745Z,33.67
2019-01-23T05:27:11.468Z,32.23
2019-01-23T05:30:22.714Z,32.90
2019-01-23T05:33:28.427Z,32.07
2019-01-23T05:36:34.128Z,31.43
2019-01-23T05:39:39.857Z,28.97
2019-01-23T05:42:45.667Z,30.63
2019-01-23T05:45:51.521Z,30.90
2019-01-23T05:48:57.254Z,29.67
2019-01-23T05:52:03.003Z,30.47
2019-01-23T05:55:10.119Z,31.37
2019-01-23T05:58:15.828Z,30.90
2019-01-23T06:01:21.605Z,31.40
2019-01-23T06:04:27.411Z,31.83
2019-01-23T06:07:33.148Z,31.47
2019-01-23T06:10:38.990Z,35.83
2019-01-23T06:13:44.722Z,35.70
2019-01-23T06:16:50.459Z,36.53
2019-01-23T06:19:56.288Z,36.70
2019-01-23T06:23:02.175Z,33.67
2019-01-23T06:26:07.960Z,32.93
2019-01-23T06:29:13.695Z,34.17
2019-01-23T06:32:19.411Z,32.63
2019-01-23T06:35:25.228Z,33.33
2019-01-23T06:38:30.923Z,37.33
2019-01-23T06:41:36.640Z,36.13
2019-01-23T06:44:42.337Z,37.30
2019-01-23T06:47:49.910Z,38.03
2019-01-23T06:50:55.609Z,35.67
2019-01-23T06:54:01.301Z,36.27
2019-01-23T06:57:07.004Z,34.50
2019-01-23T07:00:17.950Z,36.40
2019-01-23T07:03:23.871Z,34.20
2019-01-23T07:06:29.591Z,33.97
2019-01-23T07:09:35.311Z,31.80
2019-01-23T07:12:41.273Z,32.23
2019-01-23T07:15:46.984Z,30.60
2019-01-23T07:18:53.287Z,31.70
2019-01-23T07:21:58.989Z,31.47
2019-01-23T07:25:05.548Z,32.10
2019-01-23T07:28:11.468Z,35.00
2019-01-23T07:31:17.276Z,29.80
2019-01-23T07:34:22.981Z,29.60
2019-01-23T07:37:28.698Z,31.57
2019-01-23T07:40:34.843Z,30.00
2019-01-23T07:43:40.559Z,31.33
2019-01-23T07:46:46.385Z,28.07
2019-01-23T07:49:52.081Z,27.23
2019-01-23T07:52:58.865Z,26.67
2019-01-23T07:56:04.675Z,30.20
2019-01-23T07:59:10.397Z,25.87
2019-01-23T08:02:16.115Z,26.63
2019-01-23T08:05:24.671Z,27.60
2019-01-23T08:08:30.393Z,27.43
2019-01-23T08:11:36.101Z,43.30
2019-01-23T08:14:42.261Z,29.27
2019-01-23T08:17:48.392Z,28.40
2019-01-23T08:20:54.215Z,24.60
2019-01-23T08:23:59.989Z,23.53
2019-01-23T08:27:07.104Z,22.37
2019-01-23T08:30:15.476Z,24.67
2019-01-23T08:33:21.285Z,26.87
2019-01-23T08:36:26.988Z,22.40
2019-01-23T08:39:32.692Z,24.43
2019-01-23T08:42:38.394Z,20.43
2019-01-23T08:45:44.105Z,23.70
2019-01-23T08:48:49.979Z,24.90
2019-01-23T08:51:55.684Z,23.60
2019-01-23T08:55:01.452Z,20.53
2019-01-23T08:58:08.061Z,16.90
2019-01-23T09:01:13.883Z,19.73
2019-01-23T09:04:19.713Z,21.57
2019-01-23T09:07:25.433Z,22.80
2019-01-23T09:10:31.382Z,23.40
2019-01-23T09:13:37.091Z,23.47
2019-01-23T09:16:44.031Z,23.40
2019-01-23T09:19:49.760Z,23.33
2019-01-23T09:22:55.567Z,24.20
2019-01-23T09:26:01.411Z,23.83
2019-01-23T09:29:07.575Z,24.97
2019-01-23T09:32:55.511Z,28.20
2019-01-23T09:36:41.065Z,28.37
2019-01-23T09:40:05.002Z,25.27
2019-01-23T09:43:50.629Z,25.47
2019-01-23T09:47:11.703Z,26.23
2019-01-23T09:50:35.522Z,25.90
2019-01-23T09:54:05.509Z,26.37
2019-01-23T09:57:11.260Z,26.07
2019-01-23T10:00:20.805Z,26.87
2019-01-23T10:03:26.634Z,29.07
2019-01-23T10:06:32.345Z,27.67
2019-01-23T10:09:39.220Z,29.10
2019-01-23T10:12:45.012Z,28.90
2019-01-23T10:15:53.985Z,29.13
2019-01-23T10:18:59.774Z,28.30
2019-01-23T10:22:05.782Z,29.70
2019-01-23T10:25:11.713Z,29.23
2019-01-23T10:28:17.414Z,30.40
2019-01-23T10:31:23.230Z,29.60
2019-01-23T10:34:28.957Z,31.00
2019-01-23T10:37:34.662Z,30.20
2019-01-23T10:40:40.374Z,32.03
2019-01-23T10:43:46.098Z,33.33
2019-01-23T10:46:51.924Z,30.47
2019-01-23T10:49:57.758Z,32.07
2019-01-23T10:53:03.556Z,33.67
2019-01-23T10:56:09.275Z,38.70
2019-01-23T10:59:14.962Z,34.83
2019-01-23T11:02:20.776Z,36.50
2019-01-23T11:05:27.819Z,34.77
2019-01-23T11:08:33.763Z,34.63
2019-01-23T11:11:39.482Z,34.20
2019-01-23T11:14:45.318Z,37.93
2019-01-23T11:17:51.254Z,44.20
2019-01-23T11:20:57.076Z,40.50
2019-01-23T11:24:03.000Z,40.97
2019-01-23T11:27:08.968Z,50.30
2019-01-23T11:30:18.160Z,39.37
2019-01-23T11:33:24.059Z,38.33
2019-01-23T11:36:30.853Z,39.67
2019-01-23T11:39:36.586Z,42.53
2019-01-23T11:42:42.306Z,33.53
2019-01-23T11:45:48.111Z,40.50
2019-01-23T11:48:53.816Z,33.63
2019-01-23T11:52:00.519Z,32.40
2019-01-23T11:55:07.416Z,29.97
2019-01-23T11:58:14.329Z,30.80
2019-01-23T12:01:20.259Z,29.47
2019-01-23T12:04:26.954Z,29.57
2019-01-23T12:07:32.719Z,27.80
2019-01-23T12:10:38.425Z,26.57
2019-01-23T12:13:44.225Z,30.07
2019-01-23T12:16:49.932Z,30.93
2019-01-23T12:19:55.663Z,33.73
2019-01-23T12:23:01.472Z,39.77
2019-01-23T12:26:07.300Z,30.57
2019-01-23T12:29:13.266Z,33.17
2019-01-23T12:32:18.958Z,39.87
2019-01-23T12:35:24.680Z,38.67
2019-01-23T12:38:30.402Z,38.37
2019-01-23T12:41:36.401Z,36.53
2019-01-23T12:44:42.330Z,40.77
2019-01-23T12:47:48.170Z,44.30
2019-01-23T12:50:53.893Z,37.67
2019-01-23T12:53:59.850Z,37.07
2019-01-23T12:57:05.664Z,37.60
2019-01-23T13:00:15.373Z,37.17
2019-01-23T13:03:21.199Z,37.47
2019-01-23T13:06:27.014Z,40.53
2019-01-23T13:09:32.726Z,36.00
2019-01-23T13:12:38.457Z,37.47
2019-01-23T13:15:44.172Z,34.30
2019-01-23T13:18:49.899Z,35.87
2019-01-23T13:21:55.605Z,40.33
2019-01-23T13:25:01.329Z,37.53
2019-01-23T13:28:07.679Z,37.57
2019-01-23T13:31:13.492Z,36.50
2019-01-23T13:34:19.319Z,36.87
2019-01-23T13:37:25.034Z,33.17
2019-01-23T13:40:33.788Z,35.63
2019-01-23T13:43:39.497Z,35.67
2019-01-23T13:46:45.307Z,36.50
2019-01-23T13:49:51.082Z,34.30
2019-01-23T13:52:56.907Z,38.53
2019-01-23T13:56:02.676Z,31.47
2019-01-23T13:59:08.536Z,31.10
2019-01-23T14:02:14.256Z,29.10
2019-01-23T14:05:20.188Z,35.97
2019-01-23T14:08:26.105Z,31.93
2019-01-23T14:11:31.832Z,35.63
2019-01-23T14:14:37.586Z,40.10
2019-01-23T14:17:43.412Z,34.93
2019-01-23T14:20:49.143Z,35.10
2019-01-23T14:23:54.977Z,35.13
2019-01-23T14:27:00.917Z,37.60
2019-01-23T14:30:10.022Z,32.37
2019-01-23T14:33:16.591Z,32.67
2019-01-23T14:36:22.343Z,35.47
2019-01-23T14:39:28.172Z,40.23
2019-01-23T14:42:34.156Z,35.83
2019-01-23T14:45:39.984Z,40.23
2019-01-23T14:48:45.720Z,43.93
2019-01-23T14:51:51.472Z,35.93
2019-01-23T14:54:57.204Z,34.93
2019-01-23T14:58:03.114Z,33.10
2019-01-23T15:01:08.913Z,31.00
2019-01-23T15:04:14.625Z,33.73
2019-01-23T15:07:20.376Z,36.83
2019-01-23T15:10:30.466Z,40.77
2019-01-23T15:13:36.184Z,35.00
2019-01-23T15:16:42.033Z,58.03
2019-01-23T15:19:47.836Z,45.43
2019-01-23T15:22:54.863Z,110.13
2019-01-23T15:26:00.588Z,53.43
2019-01-23T15:29:06.332Z,41.30
2019-01-23T15:32:17.247Z,73.17
2019-01-23T15:35:20.301Z,48.73
2019-01-23T15:38:26.026Z,62.17
2019-01-23T15:41:31.917Z,59.70
2019-01-23T15:44:37.668Z,38.03
2019-01-23T15:47:43.395Z,38.70
2019-01-23T15:50:49.123Z,37.93
2019-01-23T15:53:54.821Z,69.50
2019-01-23T15:57:00.542Z,61.93
2019-01-23T16:00:09.542Z,69.37
2019-01-23T16:03:15.346Z,45.37
2019-01-23T16:06:21.072Z,45.23
2019-01-23T16:09:26.968Z,48.20
2019-01-23T16:12:32.670Z,60.77
2019-01-23T16:15:38.601Z,59.53
2019-01-23T16:18:45.321Z,94.23
2019-01-23T16:21:51.388Z,73.37
2019-01-23T16:24:57.213Z,61.77
2019-01-23T16:28:03.078Z,47.60
2019-01-23T16:31:08.888Z,59.17
2019-01-23T16:34:14.706Z,75.20
2019-01-23T16:37:20.512Z,82.17
2019-01-23T16:40:26.320Z,66.27
2019-01-23T16:43:32.047Z,48.17
2019-01-23T16:46:37.776Z,43.77
2019-01-23T16:49:43.497Z,63.47
2019-01-23T16:52:49.423Z,48.60
2019-01-23T16:55:55.181Z,44.70
2019-01-23T16:59:00.906Z,52.00
2019-01-23T17:02:06.839Z,61.83
2019-01-23T17:05:16.431Z,46.73
2019-01-23T17:08:22.169Z,44.90
2019-01-23T17:11:28.988Z,42.83
2019-01-23T17:14:35.074Z,44.40
2019-01-23T17:17:40.906Z,46.10
2019-01-23T17:20:49.095Z,48.63
2019-01-23T17:23:54.911Z,54.63
2019-01-23T17:27:00.633Z,52.77
2019-01-23T17:30:08.400Z,47.63
2019-01-23T17:33:15.239Z,45.20
2019-01-23T17:36:20.939Z,45.80
2019-01-23T17:39:26.759Z,37.80
2019-01-23T17:42:32.693Z,41.73
2019-01-23T17:45:39.855Z,37.97
2019-01-23T17:48:45.669Z,42.57
2019-01-23T17:51:51.386Z,45.00
2019-01-23T17:54:57.085Z,39.17
2019-01-23T17:58:02.960Z,46.20
2019-01-23T18:01:09.069Z,53.27
2019-01-23T18:04:14.754Z,45.60
2019-01-23T18:07:20.585Z,181.87
2019-01-23T18:10:26.518Z,49.63
2019-01-23T18:13:32.263Z,44.67
2019-01-23T18:16:37.992Z,42.03
2019-01-23T18:19:43.703Z,44.57
2019-01-23T18:22:49.436Z,42.93
2019-01-23T18:25:55.146Z,41.40
2019-01-23T18:29:00.887Z,39.83
2019-01-23T18:32:09.217Z,41.97
2019-01-23T18:36:14.517Z,41.20
2019-01-23T18:39:46.605Z,40.87
2019-01-23T18:43:17.096Z,41.03
2019-01-23T18:47:15.405Z,44.73
2019-01-23T18:50:54.141Z,44.47
2019-01-23T18:53:59.960Z,40.20
2019-01-23T18:57:06.123Z,40.77
2019-01-23T19:00:16.045Z,43.37
2019-01-23T19:03:21.884Z,43.93
2019-01-23T19:06:27.739Z,43.60
2019-01-23T19:09:33.688Z,45.47
2019-01-23T19:12:39.530Z,44.60
2019-01-23T19:15:45.248Z,45.07
2019-01-23T19:18:50.977Z,51.73
2019-01-23T19:21:56.908Z,46.63
2019-01-23T19:25:02.634Z,46.33
2019-01-23T19:28:08.584Z,44.73
2019-01-23T19:31:14.336Z,44.90
2019-01-23T19:34:20.059Z,41.90
2019-01-23T19:37:25.877Z,53.87
2019-01-23T19:40:31.685Z,47.20
2019-01-23T19:43:37.624Z,47.60
2019-01-23T19:46:43.452Z,46.83
2019-01-23T19:49:49.487Z,56.00
2019-01-23T19:52:55.378Z,52.03
2019-01-23T19:56:01.244Z,50.07
2019-01-23T19:59:07.192Z,46.40
2019-01-23T20:02:13.189Z,47.43
2019-01-23T20:05:22.568Z,46.70
2019-01-23T20:08:28.390Z,46.60
2019-01-23T20:11:34.104Z,60.13
2019-01-23T20:14:39.959Z,59.83
2019-01-23T20:17:45.777Z,54.20
2019-01-23T20:20:52.574Z,50.27
2019-01-23T20:23:58.285Z,49.33
2019-01-23T20:27:04.425Z,50.87
2019-01-23T20:30:16.604Z,48.37
2019-01-23T20:33:27.899Z,49.83
2019-01-23T20:36:29.840Z,50.30
2019-01-23T20:39:35.578Z,54.53
2019-01-23T20:42:41.382Z,63.40
2019-01-23T20:45:47.113Z,55.27
2019-01-23T20:48:52.930Z,65.10
2019-01-23T20:51:58.664Z,52.80
2019-01-23T20:55:04.981Z,54.10
2019-01-23T20:58:10.826Z,44.87
2019-01-23T21:01:16.543Z,46.87
2019-01-23T21:04:22.358Z,44.87
2019-01-23T21:07:28.071Z,40.27
2019-01-23T21:10:34.001Z,40.83
2019-01-23T21:13:39.726Z,41.57
2019-01-23T21:16:45.445Z,44.30
2019-01-23T21:19:51.170Z,40.20
2019-01-23T21:22:57.068Z,39.67
2019-01-23T21:26:02.808Z,40.93
2019-01-23T21:29:08.526Z,43.93
2019-01-23T21:32:14.229Z,42.37
2019-01-23T21:35:20.431Z,43.73
2019-01-23T21:38:27.132Z,43.07
2019-01-23T21:41:32.839Z,44.33
2019-01-23T21:44:38.559Z,46.60
2019-01-23T21:47:44.669Z,45.60
2019-01-23T21:50:50.457Z,42.67
2019-01-23T21:53:56.188Z,45.57
2019-01-23T21:57:02.004Z,44.93
2019-01-23T22:00:12.450Z,49.03
2019-01-23T22:03:19.240Z,53.80
2019-01-23T22:06:25.065Z,50.77
2019-01-23T22:09:30.876Z,49.37
2019-01-23T22:12:36.707Z,46.77
2019-01-23T22:15:42.634Z,45.80
2019-01-23T22:18:48.374Z,46.40
2019-01-23T22:21:54.249Z,44.27
2019-01-23T22:24:59.982Z,42.10
2019-01-23T22:28:06.065Z,39.70
2019-01-23T22:31:11.982Z,41.40
2019-01-23T22:34:17.873Z,42.23
2019-01-23T22:37:23.624Z,42.60
2019-01-23T22:40:29.373Z,51.20
2019-01-23T22:43:35.111Z,65.57
2019-01-23T22:46:40.813Z,44.33
2019-01-23T22:49:46.537Z,42.63
2019-01-23T22:52:52.495Z,49.73
2019-01-23T22:55:58.318Z,46.27
2019-01-23T22:59:04.134Z,43.80
2019-01-23T23:02:09.998Z,42.50
2019-01-23T23:05:15.720Z,39.93
2019-01-23T23:08:21.436Z,42.93
2019-01-23T23:11:27.338Z,41.50
2019-01-23T23:14:33.162Z,39.77
2019-01-23T23:17:38.985Z,41.53
2019-01-23T23:20:44.675Z,38.33
2019-01-23T23:23:50.492Z,35.90
2019-01-23T23:26:56.315Z,37.47
2019-01-23T23:30:02.153Z,35.87
2019-01-23T23:33:07.966Z,34.80
2019-01-23T23:36:13.718Z,35.93
2019-01-23T23:39:19.509Z,32.90
2019-01-23T23:42:25.315Z,32.33
2019-01-23T23:45:31.043Z,30.47
2019-01-23T23:48:36.777Z,31.63
2019-01-23T23:51:42.473Z,30.83
2019-01-23T23:54:48.167Z,32.50
2019-01-23T23:57:53.980Z,33.40
